Time;durP1;ratioP1;P1;durP2;ratioP2;P2;SDS_P1;SDS_P2;PMS_P1;PMS_P2;Temp;Humidity;BMP_temperature;BMP_pressure;BME280_temperature;BME280_humidity;BME280_pressure;Samples;Min_cycle;Max_cycle;Signal;HPM_P1;HPM_P2
2021/04/23 00:01:17;;;;;;;10.05;3.20;;;;;;;;;;5081190;28;32104;-71
2021/04/23 00:03:46;;;;;;;12.30;3.42;;;;;;;;;;5080637;28;32142;-71
2021/04/23 00:06:15;;;;;;;11.68;3.53;;;;;;;;;;5080172;28;32744;-71
2021/04/23 00:08:44;;;;;;;10.43;3.20;;;;;;;;;;5080491;28;32802;-71
2021/04/23 00:11:10;;;;;;;5.30;2.83;;;;;;;;;;5080654;28;31965;-70
2021/04/23 00:13:37;;;;;;;8.73;3.30;;;;;;;;;;5080681;28;32154;-71
2021/04/23 00:16:02;;;;;;;15.43;3.42;;;;;;;;;;5080609;28;32773;-70
2021/04/23 00:18:28;;;;;;;11.60;3.20;;;;;;;;;;5080728;28;32972;-70
2021/04/23 00:20:54;;;;;;;11.18;3.33;;;;;;;;;;5079869;28;30598;-71
2021/04/23 00:23:21;;;;;;;8.65;3.20;;;;;;;;;;5080175;28;45560;-70
2021/04/23 00:25:48;;;;;;;10.98;3.58;;;;;;;;;;5080190;28;32443;-70
2021/04/23 00:28:14;;;;;;;12.65;3.03;;;;;;;;;;5079931;28;32394;-70
2021/04/23 00:30:42;;;;;;;19.02;4.00;;;;;;;;;;5082423;28;32030;-71
2021/04/23 00:33:08;;;;;;;9.95;3.05;;;;;;;;;;5082271;28;30975;-71
2021/04/23 00:35:38;;;;;;;10.10;3.35;;;;;;;;;;5083729;28;32557;-71
2021/04/23 00:38:04;;;;;;;7.13;2.60;;;;;;;;;;5083911;28;32283;-71
2021/04/23 00:40:32;;;;;;;21.77;3.60;;;;;;;;;;5083880;28;31929;-71
2021/04/23 00:42:58;;;;;;;8.43;3.00;;;;;;;;;;5081957;28;32157;-71
2021/04/23 00:45:25;;;;;;;10.95;2.95;;;;;;;;;;5083788;28;33635;-71
2021/04/23 00:47:52;;;;;;;10.70;3.58;;;;;;;;;;5083447;28;32280;-71
2021/04/23 00:50:28;;;;;;;15.38;4.38;;;;;;;;;;5083593;28;32878;-72
2021/04/23 00:52:54;;;;;;;13.38;3.25;;;;;;;;;;5082326;28;31580;-72
2021/04/23 00:55:22;;;;;;;7.93;3.38;;;;;;;;;;5083549;28;33477;-71
2021/04/23 00:57:47;;;;;;;8.50;2.97;;;;;;;;;;5083587;28;32903;-71
2021/04/23 01:00:13;;;;;;;13.65;5.25;;;;;;;;;;5080902;28;31855;-71
2021/04/23 01:02:39;;;;;;;14.27;3.40;;;;;;;;;;5083744;28;32069;-71
2021/04/23 01:05:05;;;;;;;12.77;3.63;;;;;;;;;;5083280;28;33499;-71
2021/04/23 01:07:31;;;;;;;13.32;3.45;;;;;;;;;;5080225;28;33020;-72
2021/04/23 01:09:57;;;;;;;16.92;3.25;;;;;;;;;;5083243;28;32760;-72
2021/04/23 01:12:22;;;;;;;8.38;3.30;;;;;;;;;;5083498;28;32647;-72
2021/04/23 01:14:49;;;;;;;13.60;3.42;;;;;;;;;;5083481;28;32710;-71
2021/04/23 01:17:14;;;;;;;15.18;3.15;;;;;;;;;;5083433;28;32236;-71
2021/04/23 01:19:40;;;;;;;14.50;3.72;;;;;;;;;;5083486;28;31887;-71
2021/04/23 01:22:05;;;;;;;10.27;3.10;;;;;;;;;;5083758;28;32746;-71
2021/04/23 01:24:32;;;;;;;12.55;3.63;;;;;;;;;;5083913;28;32547;-70
2021/04/23 01:26:58;;;;;;;6.68;2.80;;;;;;;;;;5094586;28;32807;-70
2021/04/23 01:29:25;;;;;;;8.02;2.75;;;;;;;;;;5091828;28;33213;-71
2021/04/23 01:31:52;;;;;;;12.82;3.38;;;;;;;;;;5083409;28;32559;-70
2021/04/23 01:34:29;;;;;;;11.57;3.10;;;;;;;;;;5082999;28;32606;-71
2021/04/23 01:36:56;;;;;;;16.58;3.35;;;;;;;;;;5082795;28;33314;-70
2021/04/23 01:39:23;;;;;;;7.75;2.95;;;;;;;;;;5082960;28;32044;-71
2021/04/23 01:41:50;;;;;;;13.25;3.47;;;;;;;;;;5082197;28;32948;-70
2021/04/23 01:44:16;;;;;;;11.88;3.35;;;;;;;;;;5082869;28;32512;-71
2021/04/23 01:46:42;;;;;;;7.18;3.03;;;;;;;;;;5082641;28;32150;-70
2021/04/23 01:49:10;;;;;;;8.57;3.60;;;;;;;;;;5081600;28;30583;-70
2021/04/23 01:51:40;;;;;;;5.50;3.00;;;;;;;;;;5082706;28;32069;-70
2021/04/23 01:54:07;;;;;;;8.07;3.55;;;;;;;;;;5082769;28;32602;-72
2021/04/23 01:56:33;;;;;;;13.40;3.13;;;;;;;;;;5082426;28;33240;-70
2021/04/23 01:58:59;;;;;;;8.00;3.50;;;;;;;;;;5081310;28;31901;-71
2021/04/23 02:01:25;;;;;;;9.98;3.40;;;;;;;;;;5082755;28;31917;-70
2021/04/23 02:03:50;;;;;;;8.75;3.17;;;;;;;;;;5081397;28;32490;-70
2021/04/23 02:06:16;;;;;;;7.20;3.13;;;;;;;;;;5082005;28;32957;-70
2021/04/23 02:08:42;;;;;;;7.72;3.45;;;;;;;;;;5082555;28;31918;-70
2021/04/23 02:11:11;;;;;;;6.28;2.90;;;;;;;;;;5082212;28;31926;-71
2021/04/23 02:13:37;;;;;;;9.60;3.22;;;;;;;;;;5082431;28;32517;-71
2021/04/23 02:16:03;;;;;;;10.65;3.38;;;;;;;;;;5082410;28;32196;-70
2021/04/23 02:18:28;;;;;;;11.82;3.15;;;;;;;;;;5082818;28;31978;-72
2021/04/23 02:20:54;;;;;;;8.82;3.35;;;;;;;;;;5082273;28;31993;-72
2021/04/23 02:23:20;;;;;;;9.80;3.20;;;;;;;;;;5082283;28;32605;-71
2021/04/23 02:25:47;;;;;;;7.47;3.17;;;;;;;;;;5082334;28;32320;-71
2021/04/23 02:28:13;;;;;;;12.43;3.55;;;;;;;;;;5081507;28;32923;-71
2021/04/23 02:30:41;;;;;;;8.65;3.17;;;;;;;;;;5082053;28;32986;-71
2021/04/23 02:33:08;;;;;;;7.38;3.15;;;;;;;;;;5081984;28;33593;-72
2021/04/23 02:35:35;;;;;;;9.65;3.33;;;;;;;;;;5082059;28;32284;-71
2021/04/23 02:38:01;;;;;;;9.07;3.15;;;;;;;;;;5079290;28;31888;-70
2021/04/23 02:40:27;;;;;;;11.70;3.65;;;;;;;;;;5082041;28;32032;-70
2021/04/23 02:42:55;;;;;;;5.93;3.35;;;;;;;;;;5082061;28;32593;-70
2021/04/23 02:45:21;;;;;;;33.28;4.15;;;;;;;;;;5081841;28;32413;-71
2021/04/23 02:47:47;;;;;;;11.68;3.38;;;;;;;;;;5081901;28;32154;-70
2021/04/23 02:50:14;;;;;;;9.98;3.10;;;;;;;;;;5081210;28;32093;-71
2021/04/23 02:52:40;;;;;;;10.18;3.38;;;;;;;;;;5081382;28;32725;-70
2021/04/23 02:55:06;;;;;;;8.88;3.88;;;;;;;;;;5080657;28;32208;-71
2021/04/23 02:57:32;;;;;;;8.80;3.97;;;;;;;;;;5081791;28;31386;-70
2021/04/23 02:59:58;;;;;;;11.23;4.00;;;;;;;;;;5081780;28;32133;-71
2021/04/23 03:02:24;;;;;;;10.98;3.83;;;;;;;;;;5081612;28;32433;-71
2021/04/23 03:04:51;;;;;;;18.75;4.57;;;;;;;;;;5081729;28;32268;-70
2021/04/23 03:07:19;;;;;;;9.02;3.80;;;;;;;;;;5081604;28;31923;-70
2021/04/23 03:09:45;;;;;;;12.90;3.78;;;;;;;;;;5081382;28;33028;-71
2021/04/23 03:12:11;;;;;;;10.15;3.53;;;;;;;;;;5078717;28;32540;-71
2021/04/23 03:14:37;;;;;;;11.60;3.97;;;;;;;;;;5081123;28;32436;-71
2021/04/23 03:17:02;;;;;;;9.40;4.00;;;;;;;;;;5081343;28;32472;-70
2021/04/23 03:19:28;;;;;;;10.65;3.58;;;;;;;;;;5081463;28;32084;-71
2021/04/23 03:21:54;;;;;;;10.73;3.40;;;;;;;;;;5081277;28;32573;-71
2021/04/23 03:24:20;;;;;;;7.78;3.28;;;;;;;;;;5081487;28;32010;-71
2021/04/23 03:26:46;;;;;;;5.93;3.22;;;;;;;;;;5080738;28;32597;-70
2021/04/23 03:29:13;;;;;;;10.45;4.18;;;;;;;;;;5078460;28;31687;-70
2021/04/23 03:31:39;;;;;;;16.58;4.85;;;;;;;;;;5080841;28;32575;-71
2021/04/23 03:34:05;;;;;;;12.60;4.90;;;;;;;;;;5079870;28;30723;-71
2021/04/23 03:36:30;;;;;;;15.35;4.25;;;;;;;;;;5081281;28;31782;-70
2021/04/23 03:38:56;;;;;;;16.40;4.57;;;;;;;;;;5081256;28;32658;-70
2021/04/23 03:41:23;;;;;;;15.23;4.57;;;;;;;;;;5081025;28;32603;-70
2021/04/23 03:43:50;;;;;;;10.38;4.03;;;;;;;;;;5080888;28;32284;-71
2021/04/23 03:46:16;;;;;;;15.70;4.85;;;;;;;;;;5080949;28;31877;-70
2021/04/23 03:48:45;;;;;;;13.93;4.28;;;;;;;;;;5080933;28;32089;-71
2021/04/23 03:51:12;;;;;;;11.20;4.13;;;;;;;;;;5080359;28;32582;-71
2021/04/23 03:53:38;;;;;;;12.48;4.43;;;;;;;;;;5080964;28;32241;-71
2021/04/23 03:56:05;;;;;;;14.23;5.18;;;;;;;;;;5080679;28;32741;-70
2021/04/23 03:58:31;;;;;;;9.05;4.00;;;;;;;;;;5080771;28;31912;-70
2021/04/23 04:01:03;;;;;;;17.90;5.50;;;;;;;;;;5078180;28;32531;-70
2021/04/23 04:03:29;;;;;;;20.05;5.15;;;;;;;;;;5080743;28;33292;-70
2021/04/23 04:05:55;;;;;;;14.98;4.93;;;;;;;;;;5082956;28;32964;-72
2021/04/23 04:08:21;;;;;;;16.48;5.07;;;;;;;;;;5084490;28;32065;-70
2021/04/23 04:10:47;;;;;;;16.35;4.80;;;;;;;;;;5084180;28;33539;-70
2021/04/23 04:13:14;;;;;;;14.95;4.70;;;;;;;;;;5083936;28;32257;-72
2021/04/23 04:15:39;;;;;;;20.13;5.03;;;;;;;;;;5084886;28;31961;-70
2021/04/23 04:18:06;;;;;;;12.48;4.57;;;;;;;;;;5083692;28;32940;-71
2021/04/23 04:20:34;;;;;;;16.00;5.43;;;;;;;;;;5084277;28;32374;-70
2021/04/23 04:22:59;;;;;;;16.05;4.90;;;;;;;;;;5083890;28;32375;-70
2021/04/23 04:25:27;;;;;;;11.95;4.97;;;;;;;;;;5083151;28;30854;-70
2021/04/23 04:27:53;;;;;;;13.30;4.90;;;;;;;;;;5083433;28;31932;-70
2021/04/23 04:30:20;;;;;;;16.08;4.78;;;;;;;;;;5083733;28;32655;-71
2021/04/23 04:32:46;;;;;;;10.07;4.55;;;;;;;;;;5083839;28;32333;-72
2021/04/23 04:35:12;;;;;;;17.35;5.05;;;;;;;;;;5083948;28;32138;-71
2021/04/23 04:37:37;;;;;;;15.25;5.85;;;;;;;;;;5083988;28;31429;-70
2021/04/23 04:40:05;;;;;;;21.45;4.50;;;;;;;;;;5083360;28;43292;-70
2021/04/23 04:42:31;;;;;;;13.02;4.50;;;;;;;;;;5083820;28;32716;-70
2021/04/23 04:45:00;;;;;;;16.15;5.53;;;;;;;;;;5083809;28;31917;-72
2021/04/23 04:47:29;;;;;;;12.02;4.95;;;;;;;;;;5083573;28;31892;-70
2021/04/23 04:49:56;;;;;;;11.20;4.28;;;;;;;;;;5080805;28;32544;-70
2021/04/23 04:52:22;;;;;;;10.30;4.13;;;;;;;;;;5080894;28;32267;-71
2021/04/23 04:54:47;;;;;;;9.05;4.55;;;;;;;;;;5083471;28;32905;-71
2021/04/23 04:57:13;;;;;;;9.88;3.97;;;;;;;;;;5082890;28;31994;-71
2021/04/23 04:59:39;;;;;;;13.30;4.45;;;;;;;;;;5083567;28;32523;-71
2021/04/23 05:02:04;;;;;;;15.65;4.85;;;;;;;;;;5083026;28;32838;-71
2021/04/23 05:04:30;;;;;;;19.30;5.45;;;;;;;;;;5083609;28;32167;-70
2021/04/23 05:06:56;;;;;;;13.45;4.90;;;;;;;;;;5083488;28;31947;-71
2021/04/23 05:09:21;;;;;;;20.85;4.90;;;;;;;;;;5083171;28;33462;-70
2021/04/23 05:11:47;;;;;;;19.17;5.03;;;;;;;;;;5081704;28;30967;-70
2021/04/23 05:14:13;;;;;;;14.88;5.05;;;;;;;;;;5083195;28;32015;-70
2021/04/23 05:16:38;;;;;;;13.70;4.32;;;;;;;;;;5082010;28;32952;-72
2021/04/23 05:19:04;;;;;;;11.80;4.63;;;;;;;;;;5083179;28;32502;-71
2021/04/23 05:21:31;;;;;;;17.40;5.32;;;;;;;;;;5082882;28;32255;-72
2021/04/23 05:23:57;;;;;;;10.15;4.75;;;;;;;;;;5083242;28;31861;-72
2021/04/23 05:26:22;;;;;;;13.50;5.32;;;;;;;;;;5083050;28;32654;-72
2021/04/23 05:28:48;;;;;;;18.38;5.78;;;;;;;;;;5082981;28;32453;-72
2021/04/23 05:31:14;;;;;;;18.10;5.07;;;;;;;;;;5083239;28;31958;-70
2021/04/23 05:33:39;;;;;;;17.63;5.30;;;;;;;;;;5083635;28;31917;-72
2021/04/23 05:36:05;;;;;;;11.75;4.63;;;;;;;;;;5087486;28;32977;-70
2021/04/23 05:38:31;;;;;;;12.80;4.82;;;;;;;;;;5098006;28;32629;-70
2021/04/23 05:40:56;;;;;;;18.83;5.38;;;;;;;;;;5091887;28;33568;-70
2021/04/23 05:43:22;;;;;;;9.98;5.25;;;;;;;;;;5081669;28;32168;-71
2021/04/23 05:45:48;;;;;;;15.75;5.03;;;;;;;;;;5083062;28;32067;-72
2021/04/23 05:48:15;;;;;;;9.20;4.35;;;;;;;;;;5081758;28;32629;-71
2021/04/23 05:50:41;;;;;;;18.40;4.93;;;;;;;;;;5082633;28;32958;-70
2021/04/23 05:53:07;;;;;;;12.75;4.93;;;;;;;;;;5082438;28;31903;-68
2021/04/23 05:55:34;;;;;;;10.18;4.90;;;;;;;;;;5082320;28;31797;-68
2021/04/23 05:58:00;;;;;;;16.27;5.18;;;;;;;;;;5082086;28;32529;-72
2021/04/23 06:00:27;;;;;;;13.65;5.20;;;;;;;;;;5081790;28;32437;-70
2021/04/23 06:02:54;;;;;;;13.70;5.75;;;;;;;;;;5082261;28;31604;-70
2021/04/23 06:05:21;;;;;;;11.05;5.15;;;;;;;;;;5082193;28;32033;-71
2021/04/23 06:07:46;;;;;;;11.45;5.57;;;;;;;;;;5082172;28;33642;-70
2021/04/23 06:10:13;;;;;;;16.02;5.40;;;;;;;;;;5082243;28;32278;-71
2021/04/23 06:12:39;;;;;;;14.60;5.22;;;;;;;;;;5082642;28;31923;-71
2021/04/23 06:15:06;;;;;;;11.52;5.00;;;;;;;;;;5082493;28;32623;-70
2021/04/23 06:17:32;;;;;;;13.88;5.63;;;;;;;;;;5082400;28;32461;-71
2021/04/23 06:19:57;;;;;;;15.90;5.45;;;;;;;;;;5082324;28;32917;-69
2021/04/23 06:22:23;;;;;;;17.33;5.68;;;;;;;;;;5082048;28;32936;-69
2021/04/23 06:24:49;;;;;;;13.60;5.03;;;;;;;;;;5080908;28;31757;-69
2021/04/23 06:27:16;;;;;;;13.15;5.85;;;;;;;;;;5080259;28;33511;-70
2021/04/23 06:29:42;;;;;;;11.77;5.22;;;;;;;;;;5081412;28;33133;-73
2021/04/23 06:32:08;;;;;;;18.85;5.35;;;;;;;;;;5081683;28;31949;-71
2021/04/23 06:34:33;;;;;;;21.75;5.40;;;;;;;;;;5081706;28;32160;-68
2021/04/23 06:36:59;;;;;;;11.98;4.80;;;;;;;;;;5081707;28;32514;-70
2021/04/23 06:39:26;;;;;;;17.48;4.90;;;;;;;;;;5079025;28;32408;-72
2021/04/23 06:41:53;;;;;;;14.50;5.00;;;;;;;;;;5081399;28;31993;-69
2021/04/23 06:44:19;;;;;;;14.50;4.75;;;;;;;;;;5081062;28;32588;-69
2021/04/23 06:46:44;;;;;;;18.27;5.07;;;;;;;;;;5081679;28;32490;-69
2021/04/23 06:49:15;;;;;;;16.60;5.40;;;;;;;;;;5081877;28;32528;-69
2021/04/23 06:51:40;;;;;;;18.85;5.85;;;;;;;;;;5082072;28;31639;-72
2021/04/23 06:54:06;;;;;;;15.80;5.55;;;;;;;;;;5081638;28;32162;-70
2021/04/23 06:56:32;;;;;;;18.95;5.85;;;;;;;;;;5081596;28;32568;-72
2021/04/23 06:58:58;;;;;;;11.45;5.18;;;;;;;;;;5081281;28;32287;-72
2021/04/23 07:01:23;;;;;;;11.25;4.25;;;;;;;;;;5081781;28;32418;-70
2021/04/23 07:03:49;;;;;;;9.38;2.22;;;;;;;;;;5081063;28;32414;-73
2021/04/23 07:06:15;;;;;;;13.05;3.88;;;;;;;;;;5081161;28;33149;-76
2021/04/23 07:08:40;;;;;;;10.70;3.63;;;;;;;;;;5081572;28;31902;-73
2021/04/23 07:11:06;;;;;;;11.85;3.83;;;;;;;;;;5081155;28;32003;-75
2021/04/23 07:13:32;;;;;;;8.27;3.65;;;;;;;;;;5078799;28;32198;-74
2021/04/23 07:15:58;;;;;;;9.65;3.60;;;;;;;;;;5081606;28;33659;-75
2021/04/23 07:18:24;;;;;;;8.60;2.70;;;;;;;;;;5081303;28;32914;-75
2021/04/23 07:20:49;;;;;;;13.63;3.70;;;;;;;;;;5081629;28;31842;-75
2021/04/23 07:23:15;;;;;;;12.75;4.07;;;;;;;;;;5080599;28;30427;-73
2021/04/23 07:25:41;;;;;;;10.52;3.42;;;;;;;;;;5081200;28;32580;-73
2021/04/23 07:28:07;;;;;;;18.00;3.95;;;;;;;;;;5080671;28;32193;-72
2021/04/23 07:30:34;;;;;;;15.05;4.18;;;;;;;;;;5078496;28;32524;-68
2021/04/23 07:33:01;;;;;;;14.20;4.05;;;;;;;;;;5081246;28;33062;-74
2021/04/23 07:35:27;;;;;;;7.75;2.38;;;;;;;;;;5081086;28;33507;-76
2021/04/23 07:37:54;;;;;;;19.13;3.42;;;;;;;;;;5081219;28;32188;-72
2021/04/23 07:40:20;;;;;;;9.85;3.30;;;;;;;;;;5079323;28;33019;-70
2021/04/23 07:42:47;;;;;;;16.50;3.47;;;;;;;;;;5078503;28;31981;-72
2021/04/23 07:45:13;;;;;;;13.75;4.47;;;;;;;;;;5078490;28;32623;-69
2021/04/23 07:47:39;;;;;;;8.48;3.25;;;;;;;;;;5079626;28;31177;-73
2021/04/23 07:50:06;;;;;;;10.55;3.65;;;;;;;;;;5080695;28;31977;-75
2021/04/23 07:52:32;;;;;;;8.77;3.03;;;;;;;;;;5080991;28;32779;-69
2021/04/23 07:54:58;;;;;;;15.27;3.38;;;;;;;;;;5078418;28;32690;-75
2021/04/23 07:57:24;;;;;;;16.23;3.30;;;;;;;;;;5080538;28;32295;-68
2021/04/23 07:59:50;;;;;;;11.63;2.90;;;;;;;;;;5081788;28;31914;-72
2021/04/23 08:02:16;;;;;;;6.97;2.65;;;;;;;;;;5079862;28;32309;-75
2021/04/23 08:04:42;;;;;;;12.30;3.80;;;;;;;;;;5080567;28;32443;-71
2021/04/23 08:07:07;;;;;;;20.05;4.10;;;;;;;;;;5077372;28;33203;-74
2021/04/23 08:09:34;;;;;;;9.40;3.70;;;;;;;;;;5079785;28;32034;-73
2021/04/23 08:12:00;;;;;;;11.45;3.70;;;;;;;;;;5080544;28;33026;-69
2021/04/23 08:14:26;;;;;;;15.60;3.72;;;;;;;;;;5080816;28;33769;-73
2021/04/23 08:16:52;;;;;;;13.65;4.88;;;;;;;;;;5080612;28;32236;-71
2021/04/23 08:19:17;;;;;;;13.48;5.75;;;;;;;;;;5077885;28;31882;-72
2021/04/23 08:21:43;;;;;;;13.80;4.75;;;;;;;;;;5080729;28;32749;-70
2021/04/23 08:24:09;;;;;;;11.32;3.10;;;;;;;;;;5080183;28;32581;-70
2021/04/23 08:26:35;;;;;;;12.82;3.45;;;;;;;;;;5079991;28;32283;-71
2021/04/23 08:29:02;;;;;;;9.30;3.92;;;;;;;;;;5077477;28;32987;-69
2021/04/23 08:31:27;;;;;;;18.60;5.45;;;;;;;;;;5080212;28;32987;-74
2021/04/23 08:33:53;;;;;;;12.63;3.67;;;;;;;;;;5080478;28;32585;-67
2021/04/23 08:36:19;;;;;;;1.45;0.93;;;;;;;;;;5079810;28;33187;-68
2021/04/23 08:38:44;;;;;;;10.95;1.98;;;;;;;;;;5079879;28;32015;-72
2021/04/23 08:41:10;;;;;;;8.93;3.10;;;;;;;;;;5080367;28;31994;-71
2021/04/23 08:43:36;;;;;;;9.05;3.03;;;;;;;;;;5079520;28;33513;-69
2021/04/23 08:46:02;;;;;;;11.35;2.92;;;;;;;;;;5080043;28;33207;-68
2021/04/23 08:48:28;;;;;;;13.23;3.38;;;;;;;;;;5079586;28;33018;-67
2021/04/23 08:50:55;;;;;;;10.57;3.15;;;;;;;;;;5079861;28;33008;-68
2021/04/23 08:53:23;;;;;;;8.63;2.65;;;;;;;;;;5082654;28;32527;-69
2021/04/23 08:55:49;;;;;;;11.65;2.63;;;;;;;;;;5082870;28;33241;-71
2021/04/23 08:58:15;;;;;;;7.45;2.75;;;;;;;;;;5080472;28;31922;-67
2021/04/23 09:00:41;;;;;;;9.65;3.22;;;;;;;;;;5083163;28;32124;-69
2021/04/23 09:03:08;;;;;;;13.00;3.45;;;;;;;;;;5079742;28;33597;-69
2021/04/23 09:05:33;;;;;;;10.90;3.03;;;;;;;;;;5082990;28;32473;-68
2021/04/23 09:07:59;;;;;;;10.27;2.78;;;;;;;;;;5080444;28;31862;-68
2021/04/23 09:10:25;;;;;;;12.32;3.28;;;;;;;;;;5082929;28;31933;-68
2021/04/23 09:13:09;;;;;;;11.13;3.50;;;;;;;;;;5083004;28;33238;-68
2021/04/23 09:15:35;;;;;;;12.30;3.50;;;;;;;;;;5082866;28;33271;-68
2021/04/23 09:18:04;;;;;;;14.95;2.95;;;;;;;;;;5082733;28;31985;-69
2021/04/23 09:20:30;;;;;;;13.55;3.35;;;;;;;;;;5082771;28;32940;-68
2021/04/23 09:23:04;;;;;;;7.93;2.70;;;;;;;;;;5083016;28;32558;-69
2021/04/23 09:25:37;;;;;;;11.93;3.60;;;;;;;;;;5082551;28;32294;-68
2021/04/23 09:28:03;;;;;;;14.88;3.80;;;;;;;;;;5082459;28;31928;-70
2021/04/23 09:30:31;;;;;;;7.82;3.00;;;;;;;;;;5083061;28;31976;-69
2021/04/23 09:32:56;;;;;;;10.00;3.10;;;;;;;;;;5082357;28;33624;-69
2021/04/23 09:35:22;;;;;;;6.53;2.40;;;;;;;;;;5081065;28;32326;-69
2021/04/23 09:37:53;;;;;;;9.57;3.28;;;;;;;;;;5081334;28;32930;-69
2021/04/23 09:40:20;;;;;;;7.90;3.28;;;;;;;;;;5064719;28;31714;-69
2021/04/23 09:42:56;;;;;;;15.95;4.55;;;;;;;;;;5081266;28;31806;-69
2021/04/23 09:45:23;;;;;;;12.23;2.60;;;;;;;;;;5078605;28;32302;-69
2021/04/23 09:47:49;;;;;;;13.00;3.20;;;;;;;;;;5086306;28;30290;-69
2021/04/23 09:50:15;;;;;;;24.20;4.25;;;;;;;;;;5083983;28;32016;-69
2021/04/23 09:52:51;;;;;;;8.70;3.35;;;;;;;;;;5082965;28;32644;-68
2021/04/23 09:55:19;;;;;;;15.30;4.18;;;;;;;;;;5085884;28;32816;-68
2021/04/23 09:57:51;;;;;;;6.28;3.20;;;;;;;;;;5087973;28;31910;-69
2021/04/23 10:00:18;;;;;;;14.75;3.10;;;;;;;;;;5087302;28;32293;-69
2021/04/23 10:02:47;;;;;;;9.48;3.45;;;;;;;;;;5083252;28;32493;-69
2021/04/23 10:05:26;;;;;;;8.35;2.10;;;;;;;;;;5088761;28;32533;-68
2021/04/23 10:07:51;;;;;;;12.88;3.60;;;;;;;;;;5085603;28;32916;-69
2021/04/23 10:10:17;;;;;;;19.10;3.83;;;;;;;;;;5081999;28;32255;-68
2021/04/23 10:12:44;;;;;;;11.13;4.18;;;;;;;;;;5082046;28;32507;-69
2021/04/23 10:15:16;;;;;;;9.65;4.10;;;;;;;;;;5081797;28;32281;-69
2021/04/23 10:17:42;;;;;;;14.45;4.07;;;;;;;;;;5084417;28;31868;-69
2021/04/23 10:20:09;;;;;;;21.98;5.68;;;;;;;;;;5081967;28;31997;-70
2021/04/23 10:22:35;;;;;;;17.80;5.93;;;;;;;;;;5081812;28;32697;-70
2021/04/23 10:25:01;;;;;;;16.92;5.60;;;;;;;;;;5081844;28;32229;-69
2021/04/23 10:27:26;;;;;;;17.00;4.50;;;;;;;;;;5081261;28;32557;-70
2021/04/23 10:29:53;;;;;;;14.50;3.90;;;;;;;;;;5081803;28;31988;-71
2021/04/23 10:32:20;;;;;;;7.88;2.95;;;;;;;;;;5081617;28;33577;-70
2021/04/23 10:34:46;;;;;;;13.57;4.25;;;;;;;;;;5081543;28;32372;-68
2021/04/23 10:37:13;;;;;;;12.70;4.28;;;;;;;;;;5081468;28;31871;-70
2021/04/23 10:39:44;;;;;;;8.38;3.30;;;;;;;;;;5080366;28;30455;-71
2021/04/23 10:42:29;;;;;;;9.45;3.80;;;;;;;;;;5080947;28;33702;-70
2021/04/23 10:45:02;;;;;;;15.10;4.45;;;;;;;;;;5081214;28;32308;-70
2021/04/23 10:47:31;;;;;;;14.35;4.88;;;;;;;;;;5078889;28;31828;-69
2021/04/23 10:50:06;;;;;;;18.48;5.40;;;;;;;;;;5081062;28;32062;-68
2021/04/23 10:52:32;;;;;;;12.93;4.85;;;;;;;;;;5081354;28;33181;-71
2021/04/23 10:55:06;;;;;;;19.92;5.50;;;;;;;;;;5081523;28;32207;-69
2021/04/23 10:57:50;;;;;;;19.85;5.97;;;;;;;;;;5081094;28;32925;-71
2021/04/23 11:00:34;;;;;;;15.10;4.78;;;;;;;;;;5081322;28;32617;-70
2021/04/23 11:03:19;;;;;;;13.05;4.85;;;;;;;;;;5081466;28;33614;-71
2021/04/23 11:05:56;;;;;;;10.63;3.75;;;;;;;;;;5081359;28;33228;-72
2021/04/23 11:08:23;;;;;;;13.70;4.38;;;;;;;;;;5080774;28;32960;-69
2021/04/23 11:11:19;;;;;;;15.77;6.32;;;;;;;;;;5080059;28;32363;-68
2021/04/23 11:13:46;;;;;;;15.77;7.03;;;;;;;;;;5080933;28;33667;-70
2021/04/23 11:16:18;;;;;;;17.83;6.75;;;;;;;;;;5080589;28;33192;-69
2021/04/23 11:18:44;;;;;;;21.38;7.63;;;;;;;;;;5081220;28;32002;-68
2021/04/23 11:21:32;;;;;;;26.13;7.70;;;;;;;;;;5081034;28;31926;-68
2021/04/23 11:24:14;;;;;;;8.20;2.80;;;;;;;;;;5081183;28;32445;-68
2021/04/23 11:26:53;;;;;;;21.50;4.75;;;;;;;;;;5080856;28;32273;-70
2021/04/23 11:29:19;;;;;;;18.42;6.47;;;;;;;;;;5081102;28;32123;-69
2021/04/23 11:32:03;;;;;;;27.25;8.18;;;;;;;;;;5081103;28;32135;-71
2021/04/23 11:34:37;;;;;;;19.80;5.90;;;;;;;;;;5078401;28;32545;-70
2021/04/23 11:37:12;;;;;;;24.30;10.88;;;;;;;;;;5078336;28;33396;-70
2021/04/23 11:39:42;;;;;;;17.35;7.47;;;;;;;;;;5080746;28;32615;-70
2021/04/23 11:42:08;;;;;;;24.88;9.02;;;;;;;;;;5080805;28;32225;-70
2021/04/23 11:44:43;;;;;;;48.50;22.30;;;;;;;;;;5080842;28;33287;-73
2021/04/23 11:47:09;;;;;;;23.15;7.85;;;;;;;;;;5080946;28;32355;-70
2021/04/23 11:49:35;;;;;;;48.15;25.42;;;;;;;;;;5080787;28;31810;-73
2021/04/23 11:52:01;;;;;;;33.03;15.95;;;;;;;;;;5081030;28;33036;-69
2021/04/23 11:54:28;;;;;;;42.25;19.35;;;;;;;;;;5081367;28;32588;-69
2021/04/23 11:56:54;;;;;;;70.63;33.80;;;;;;;;;;5080582;28;32377;-69
2021/04/23 11:59:20;;;;;;;75.93;38.13;;;;;;;;;;5080412;28;32588;-69
2021/04/23 12:01:45;;;;;;;56.38;25.58;;;;;;;;;;5081382;28;32561;-69
2021/04/23 12:04:11;;;;;;;73.47;39.22;;;;;;;;;;5080300;28;32725;-70
2021/04/23 12:06:37;;;;;;;80.32;38.45;;;;;;;;;;5079965;28;32253;-70
2021/04/23 12:09:14;;;;;;;45.28;15.68;;;;;;;;;;5080294;28;31968;-71
2021/04/23 12:11:40;;;;;;;77.82;39.08;;;;;;;;;;5080367;28;32968;-70
2021/04/23 12:14:05;;;;;;;101.63;52.95;;;;;;;;;;5080302;28;32498;-71
2021/04/23 12:16:31;;;;;;;96.95;47.40;;;;;;;;;;5080165;28;32904;-71
2021/04/23 12:18:57;;;;;;;108.28;47.90;;;;;;;;;;5080438;28;32115;-71
2021/04/23 12:21:23;;;;;;;78.55;34.50;;;;;;;;;;5080721;28;32908;-71
2021/04/23 12:23:51;;;;;;;100.53;54.17;;;;;;;;;;5079799;28;32547;-71
2021/04/23 12:26:16;;;;;;;107.75;56.83;;;;;;;;;;5081244;28;33188;-71
2021/04/23 12:28:47;;;;;;;123.75;62.72;;;;;;;;;;5084201;28;32003;-71
2021/04/23 12:31:17;;;;;;;48.17;22.27;;;;;;;;;;5083926;28;32961;-71
2021/04/23 12:33:45;;;;;;;60.70;28.80;;;;;;;;;;5083536;28;32783;-71
2021/04/23 12:36:16;;;;;;;145.73;68.85;;;;;;;;;;5083013;28;33279;-71
2021/04/23 12:38:42;;;;;;;119.45;59.75;;;;;;;;;;5083347;28;32966;-70
2021/04/23 12:41:12;;;;;;;143.20;70.50;;;;;;;;;;5083253;28;32286;-71
2021/04/23 12:43:39;;;;;;;97.20;50.15;;;;;;;;;;5082935;28;32704;-71
2021/04/23 12:46:04;;;;;;;153.95;79.57;;;;;;;;;;5081906;28;30894;-71
2021/04/23 12:48:30;;;;;;;44.22;23.10;;;;;;;;;;5080588;28;31877;-71
2021/04/23 12:50:56;;;;;;;100.57;52.83;;;;;;;;;;5082856;28;32600;-71
2021/04/23 12:53:23;;;;;;;176.43;88.47;;;;;;;;;;5083477;28;32609;-71
2021/04/23 12:55:48;;;;;;;168.73;87.88;;;;;;;;;;5083053;28;33006;-70
2021/04/23 12:58:14;;;;;;;103.07;45.75;;;;;;;;;;5083085;28;32110;-71
2021/04/23 13:00:42;;;;;;;98.82;51.35;;;;;;;;;;5083597;28;32905;-71
2021/04/23 13:03:08;;;;;;;75.10;35.63;;;;;;;;;;5081851;28;32502;-71
2021/04/23 13:05:34;;;;;;;126.57;61.33;;;;;;;;;;5083902;28;33341;-71
2021/04/23 13:08:01;;;;;;;60.25;32.53;;;;;;;;;;5082714;28;32626;-71
2021/04/23 13:10:37;;;;;;;84.68;37.95;;;;;;;;;;5083807;28;33094;-71
2021/04/23 13:13:03;;;;;;;63.92;32.50;;;;;;;;;;5084161;28;32520;-71
2021/04/23 13:15:36;;;;;;;61.50;29.05;;;;;;;;;;5082263;28;32278;-69
2021/04/23 13:18:21;;;;;;;97.88;53.55;;;;;;;;;;5083534;28;31552;-71
2021/04/23 13:20:48;;;;;;;93.30;50.67;;;;;;;;;;5082827;28;31938;-70
2021/04/23 13:23:13;;;;;;;89.32;48.17;;;;;;;;;;5083302;28;32495;-70
2021/04/23 13:25:45;;;;;;;69.63;37.70;;;;;;;;;;5082885;28;32893;-70
2021/04/23 13:28:16;;;;;;;63.42;33.83;;;;;;;;;;5083157;28;33014;-70
2021/04/23 13:30:54;;;;;;;54.58;30.02;;;;;;;;;;5083504;28;32994;-71
2021/04/23 13:33:21;;;;;;;76.47;34.35;;;;;;;;;;5079915;28;32775;-70
2021/04/23 13:35:48;;;;;;;70.75;36.58;;;;;;;;;;5083340;28;32221;-70
2021/04/23 13:38:21;;;;;;;72.82;34.33;;;;;;;;;;5079043;28;31872;-71
2021/04/23 13:40:47;;;;;;;65.78;34.25;;;;;;;;;;5081774;28;32079;-71
2021/04/23 13:43:14;;;;;;;50.72;29.77;;;;;;;;;;5081961;28;33512;-70
2021/04/23 13:45:53;;;;;;;45.70;26.67;;;;;;;;;;5079877;28;32260;-70
2021/04/23 13:48:19;;;;;;;44.15;20.13;;;;;;;;;;5082907;28;32273;-70
2021/04/23 13:50:45;;;;;;;36.33;20.75;;;;;;;;;;5082400;28;32072;-70
2021/04/23 13:53:11;;;;;;;42.35;21.52;;;;;;;;;;5082907;28;33622;-70
2021/04/23 13:55:37;;;;;;;41.50;22.73;;;;;;;;;;5079842;28;32320;-71
2021/04/23 13:58:04;;;;;;;31.33;14.30;;;;;;;;;;5082469;28;32952;-70
2021/04/23 14:00:49;;;;;;;34.42;13.88;;;;;;;;;;5079693;28;32026;-70
2021/04/23 14:03:15;;;;;;;28.35;13.63;;;;;;;;;;5079589;28;32666;-69
2021/04/23 14:05:42;;;;;;;32.05;16.10;;;;;;;;;;5082226;28;32916;-70
2021/04/23 14:08:08;;;;;;;30.50;13.70;;;;;;;;;;5081938;28;32527;-70
2021/04/23 14:10:36;;;;;;;29.13;15.23;;;;;;;;;;5080400;28;32081;-67
2021/04/23 14:13:01;;;;;;;27.38;14.88;;;;;;;;;;5083665;28;33649;-70
2021/04/23 14:15:27;;;;;;;25.33;13.40;;;;;;;;;;5093655;28;32243;-71
2021/04/23 14:17:53;;;;;;;28.15;12.60;;;;;;;;;;5095372;28;33049;-71
2021/04/23 14:20:18;;;;;;;21.25;11.00;;;;;;;;;;5094916;28;32539;-71
2021/04/23 14:22:44;;;;;;;19.83;9.30;;;;;;;;;;5083355;28;32473;-71
2021/04/23 14:25:10;;;;;;;17.92;8.07;;;;;;;;;;5082814;28;32308;-71
2021/04/23 14:27:35;;;;;;;18.75;8.80;;;;;;;;;;5082232;28;32070;-71
2021/04/23 14:30:03;;;;;;;27.10;9.57;;;;;;;;;;5079636;28;32055;-71
2021/04/23 14:32:28;;;;;;;23.70;8.57;;;;;;;;;;5082256;28;32519;-71